sensor_id;sensor_type;location;lat;lon;timestamp;pressure;altitude;pressure_sealevel;temperature;humidity
16580;BME280;8402;51.466;6.806;2023-10-31T00:00:59;99212.88;;;14.33;100.00
16580;BME280;8402;51.466;6.806;2023-10-31T00:03:32;99220.94;;;14.19;100.00
16580;BME280;8402;51.466;6.806;2023-10-31T00:06:05;99236.63;;;13.92;100.00
16580;BME280;8402;51.466;6.806;2023-10-31T00:08:34;99235.91;;;13.95;100.00
16580;BME280;8402;51.466;6.806;2023-10-31T00:11:05;99252.97;;;13.88;100.00
16580;BME280;8402;51.466;6.806;2023-10-31T00:13:35;99265.03;;;13.87;100.00
16580;BME280;8402;51.466;6.806;2023-10-31T00:16:05;99257.56;;;13.84;100.00
16580;BME280;8402;51.466;6.806;2023-10-31T00:18:35;99274.31;;;13.83;100.00
16580;BME280;8402;51.466;6.806;2023-10-31T00:21:08;99280.13;;;13.81;100.00
16580;BME280;8402;51.466;6.806;2023-10-31T00:23:43;99281.22;;;13.73;100.00
16580;BME280;8402;51.466;6.806;2023-10-31T00:26:13;99293.69;;;13.74;100.00
16580;BME280;8402;51.466;6.806;2023-10-31T00:28:43;99292.91;;;13.73;100.00
16580;BME280;8402;51.466;6.806;2023-10-31T00:31:13;99313.56;;;13.78;100.00
16580;BME280;8402;51.466;6.806;2023-10-31T00:33:43;99315.97;;;13.83;100.00
16580;BME280;8402;51.466;6.806;2023-10-31T00:36:16;99320.38;;;13.91;100.00
16580;BME280;8402;51.466;6.806;2023-10-31T00:38:46;99323.53;;;13.93;100.00
16580;BME280;8402;51.466;6.806;2023-10-31T00:41:16;99329.06;;;14.00;100.00
16580;BME280;8402;51.466;6.806;2023-10-31T00:43:46;99333.38;;;14.01;100.00
16580;BME280;8402;51.466;6.806;2023-10-31T00:46:16;99347.78;;;14.02;100.00
16580;BME280;8402;51.466;6.806;2023-10-31T00:48:46;99343.84;;;13.99;100.00
16580;BME280;8402;51.466;6.806;2023-10-31T00:51:19;99347.31;;;13.96;100.00
16580;BME280;8402;51.466;6.806;2023-10-31T00:53:49;99359.59;;;13.83;100.00
16580;BME280;8402;51.466;6.806;2023-10-31T00:56:18;99361.97;;;13.85;100.00
16580;BME280;8402;51.466;6.806;2023-10-31T00:58:48;99379.75;;;13.75;100.00
16580;BME280;8402;51.466;6.806;2023-10-31T01:01:18;99378.19;;;13.74;100.00
16580;BME280;8402;51.466;6.806;2023-10-31T01:03:51;99386.34;;;13.74;100.00
16580;BME280;8402;51.466;6.806;2023-10-31T01:06:24;99381.63;;;13.71;100.00
16580;BME280;8402;51.466;6.806;2023-10-31T01:08:54;99381.59;;;13.67;100.00
16580;BME280;8402;51.466;6.806;2023-10-31T01:11:23;99390.94;;;13.66;100.00
16580;BME280;8402;51.466;6.806;2023-10-31T01:13:53;99402.09;;;13.58;100.00
16580;BME280;8402;51.466;6.806;2023-10-31T01:16:23;99399.59;;;13.49;100.00
16580;BME280;8402;51.466;6.806;2023-10-31T01:18:53;99404.22;;;13.45;100.00
16580;BME280;8402;51.466;6.806;2023-10-31T01:21:26;99402.28;;;13.45;100.00
16580;BME280;8402;51.466;6.806;2023-10-31T01:23:56;99402.69;;;13.47;100.00
16580;BME280;8402;51.466;6.806;2023-10-31T01:26:26;99415.16;;;13.48;100.00
16580;BME280;8402;51.466;6.806;2023-10-31T01:28:56;99408.88;;;13.44;100.00
16580;BME280;8402;51.466;6.806;2023-10-31T01:31:26;99417.19;;;13.29;100.00
16580;BME280;8402;51.466;6.806;2023-10-31T01:33:56;99414.81;;;13.27;100.00
16580;BME280;8402;51.466;6.806;2023-10-31T01:36:29;99411.69;;;13.25;100.00
16580;BME280;8402;51.466;6.806;2023-10-31T01:38:59;99418.53;;;13.19;100.00
16580;BME280;8402;51.466;6.806;2023-10-31T01:41:30;99425.59;;;13.20;100.00
16580;BME280;8402;51.466;6.806;2023-10-31T01:44:00;99424.00;;;13.19;100.00
16580;BME280;8402;51.466;6.806;2023-10-31T01:46:29;99426.38;;;13.20;100.00
16580;BME280;8402;51.466;6.806;2023-10-31T01:48:59;99428.03;;;13.25;100.00
16580;BME280;8402;51.466;6.806;2023-10-31T01:51:32;99440.50;;;13.26;100.00
16580;BME280;8402;51.466;6.806;2023-10-31T01:54:03;99442.06;;;13.27;100.00
16580;BME280;8402;51.466;6.806;2023-10-31T01:56:33;99443.44;;;13.17;100.00
16580;BME280;8402;51.466;6.806;2023-10-31T01:59:05;99445.00;;;13.18;100.00
16580;BME280;8402;51.466;6.806;2023-10-31T02:01:37;99443.44;;;13.17;100.00
16580;BME280;8402;51.466;6.806;2023-10-31T02:04:08;99455.09;;;13.18;100.00
16580;BME280;8402;51.466;6.806;2023-10-31T02:06:42;99456.25;;;13.17;100.00
16580;BME280;8402;51.466;6.806;2023-10-31T02:09:12;99457.34;;;13.12;100.00
16580;BME280;8402;51.466;6.806;2023-10-31T02:11:42;99445.66;;;13.12;100.00
16580;BME280;8402;51.466;6.806;2023-10-31T02:14:12;99448.38;;;13.12;100.00
16580;BME280;8402;51.466;6.806;2023-10-31T02:16:42;99458.78;;;13.06;100.00
16580;BME280;8402;51.466;6.806;2023-10-31T02:19:13;99444.81;;;13.08;100.00
16580;BME280;8402;51.466;6.806;2023-10-31T02:21:51;99443.22;;;13.07;100.00
16580;BME280;8402;51.466;6.806;2023-10-31T02:24:20;99447.84;;;13.03;100.00
16580;BME280;8402;51.466;6.806;2023-10-31T02:26:50;99454.44;;;13.02;100.00
16580;BME280;8402;51.466;6.806;2023-10-31T02:29:20;99452.41;;;12.99;100.00
16580;BME280;8402;51.466;6.806;2023-10-31T02:31:50;99452.50;;;13.02;100.00
16580;BME280;8402;51.466;6.806;2023-10-31T02:34:21;99451.72;;;13.02;100.00
16580;BME280;8402;51.466;6.806;2023-10-31T02:36:55;99450.84;;;12.98;100.00
16580;BME280;8402;51.466;6.806;2023-10-31T02:39:25;99446.97;;;12.99;100.00
16580;BME280;8402;51.466;6.806;2023-10-31T02:41:55;99445.34;;;12.94;100.00
16580;BME280;8402;51.466;6.806;2023-10-31T02:44:25;99444.06;;;12.88;100.00
16580;BME280;8402;51.466;6.806;2023-10-31T02:46:55;99443.28;;;12.87;100.00
16580;BME280;8402;51.466;6.806;2023-10-31T02:49:25;99447.56;;;12.88;100.00
16580;BME280;8402;51.466;6.806;2023-10-31T02:51:58;99454.47;;;12.82;100.00
16580;BME280;8402;51.466;6.806;2023-10-31T02:54:27;99452.16;;;12.84;100.00
16580;BME280;8402;51.466;6.806;2023-10-31T02:56:57;99445.41;;;12.78;100.00
16580;BME280;8402;51.466;6.806;2023-10-31T02:59:28;99452.94;;;12.85;100.00
16580;BME280;8402;51.466;6.806;2023-10-31T03:01:58;99453.31;;;12.83;100.00
16580;BME280;8402;51.466;6.806;2023-10-31T03:04:28;99449.88;;;12.86;100.00
16580;BME280;8402;51.466;6.806;2023-10-31T03:07:00;99453.72;;;12.85;100.00
16580;BME280;8402;51.466;6.806;2023-10-31T03:09:30;99456.09;;;12.87;100.00
16580;BME280;8402;51.466;6.806;2023-10-31T03:12:00;99460.03;;;12.89;100.00
16580;BME280;8402;51.466;6.806;2023-10-31T03:14:30;99455.00;;;12.91;100.00
16580;BME280;8402;51.466;6.806;2023-10-31T03:17:00;99455.47;;;12.93;100.00
16580;BME280;8402;51.466;6.806;2023-10-31T03:19:30;99459.66;;;12.91;100.00
16580;BME280;8402;51.466;6.806;2023-10-31T03:22:02;99462.25;;;12.84;100.00
16580;BME280;8402;51.466;6.806;2023-10-31T03:24:33;99463.03;;;12.84;100.00
16580;BME280;8402;51.466;6.806;2023-10-31T03:27:03;99463.78;;;12.81;100.00
16580;BME280;8402;51.466;6.806;2023-10-31T03:29:33;99467.66;;;12.80;100.00
16580;BME280;8402;51.466;6.806;2023-10-31T03:32:03;99460.19;;;12.77;100.00
16580;BME280;8402;51.466;6.806;2023-10-31T03:34:33;99461.06;;;12.81;100.00
16580;BME280;8402;51.466;6.806;2023-10-31T03:37:07;99462.22;;;12.80;100.00
16580;BME280;8402;51.466;6.806;2023-10-31T03:39:37;99464.47;;;12.78;100.00
16580;BME280;8402;51.466;6.806;2023-10-31T03:42:07;99465.34;;;12.82;100.00
16580;BME280;8402;51.466;6.806;2023-10-31T03:44:37;99471.94;;;12.81;100.00
16580;BME280;8402;51.466;6.806;2023-10-31T03:47:06;99464.63;;;12.85;100.00
16580;BME280;8402;51.466;6.806;2023-10-31T03:49:37;99477.94;;;12.90;100.00
16580;BME280;8402;51.466;6.806;2023-10-31T03:52:10;99475.59;;;12.89;100.00
16580;BME280;8402;51.466;6.806;2023-10-31T03:54:40;99479.09;;;12.89;100.00
16580;BME280;8402;51.466;6.806;2023-10-31T03:57:09;99486.53;;;12.92;100.00
16580;BME280;8402;51.466;6.806;2023-10-31T03:59:39;99484.25;;;12.94;100.00
16580;BME280;8402;51.466;6.806;2023-10-31T04:02:09;99493.56;;;12.93;100.00
16580;BME280;8402;51.466;6.806;2023-10-31T04:04:39;99488.97;;;12.98;100.00
16580;BME280;8402;51.466;6.806;2023-10-31T04:07:12;99494.00;;;12.95;100.00
16580;BME280;8402;51.466;6.806;2023-10-31T04:09:42;99493.84;;;12.88;100.00
16580;BME280;8402;51.466;6.806;2023-10-31T04:12:11;99496.84;;;12.83;100.00
16580;BME280;8402;51.466;6.806;2023-10-31T04:14:42;99498.88;;;12.86;100.00
16580;BME280;8402;51.466;6.806;2023-10-31T04:17:12;99502.03;;;12.88;100.00
16580;BME280;8402;51.466;6.806;2023-10-31T04:19:42;99504.38;;;12.90;100.00
16580;BME280;8402;51.466;6.806;2023-10-31T04:22:14;99503.19;;;12.87;100.00
16580;BME280;8402;51.466;6.806;2023-10-31T04:24:44;99503.88;;;12.84;100.00
16580;BME280;8402;51.466;6.806;2023-10-31T04:27:14;99502.66;;;12.82;100.00
16580;BME280;8402;51.466;6.806;2023-10-31T04:29:44;99509.63;;;12.79;100.00
16580;BME280;8402;51.466;6.806;2023-10-31T04:32:16;99508.03;;;12.78;100.00
16580;BME280;8402;51.466;6.806;2023-10-31T04:34:46;99514.56;;;12.74;100.00
16580;BME280;8402;51.466;6.806;2023-10-31T04:37:18;99518.91;;;12.78;100.00
16580;BME280;8402;51.466;6.806;2023-10-31T04:39:48;99524.34;;;12.78;100.00
16580;BME280;8402;51.466;6.806;2023-10-31T04:42:19;99525.19;;;12.79;100.00
16580;BME280;8402;51.466;6.806;2023-10-31T04:44:49;99531.69;;;12.74;100.00
16580;BME280;8402;51.466;6.806;2023-10-31T04:47:19;99535.97;;;12.75;100.00
16580;BME280;8402;51.466;6.806;2023-10-31T04:49:51;99537.53;;;12.76;100.00
16580;BME280;8402;51.466;6.806;2023-10-31T04:52:23;99539.84;;;12.74;100.00
16580;BME280;8402;51.466;6.806;2023-10-31T04:54:53;99538.28;;;12.73;100.00
16580;BME280;8402;51.466;6.806;2023-10-31T04:57:23;99543.34;;;12.75;100.00
16580;BME280;8402;51.466;6.806;2023-10-31T04:59:53;99543.00;;;12.76;100.00
16580;BME280;8402;51.466;6.806;2023-10-31T05:02:25;99551.56;;;12.78;100.00
16580;BME280;8402;51.466;6.806;2023-10-31T05:04:55;99560.91;;;12.77;100.00
16580;BME280;8402;51.466;6.806;2023-10-31T05:07:30;99559.75;;;12.78;100.00
16580;BME280;8402;51.466;6.806;2023-10-31T05:10:00;99556.97;;;12.75;100.00
16580;BME280;8402;51.466;6.806;2023-10-31T05:12:30;99560.47;;;12.75;100.00
16580;BME280;8402;51.466;6.806;2023-10-31T05:15:00;99557.69;;;12.72;100.00
16580;BME280;8402;51.466;6.806;2023-10-31T05:17:30;99566.28;;;12.74;100.00
16580;BME280;8402;51.466;6.806;2023-10-31T05:19:59;99569.78;;;12.74;100.00
16580;BME280;8402;51.466;6.806;2023-10-31T05:22:32;99568.47;;;12.68;100.00
16580;BME280;8402;51.466;6.806;2023-10-31T05:25:03;99575.66;;;12.76;100.00
16580;BME280;8402;51.466;6.806;2023-10-31T05:27:33;99583.41;;;12.74;100.00
16580;BME280;8402;51.466;6.806;2023-10-31T05:30:04;99588.13;;;12.77;100.00
16580;BME280;8402;51.466;6.806;2023-10-31T05:32:34;99588.91;;;12.78;100.00
16580;BME280;8402;51.466;6.806;2023-10-31T05:35:05;99589.69;;;12.78;100.00
16580;BME280;8402;51.466;6.806;2023-10-31T05:37:38;99596.63;;;12.76;100.00
16580;BME280;8402;51.466;6.806;2023-10-31T05:40:10;99603.59;;;12.73;100.00
16580;BME280;8402;51.466;6.806;2023-10-31T05:42:40;99594.97;;;12.71;100.00
16580;BME280;8402;51.466;6.806;2023-10-31T05:45:10;99606.69;;;12.72;100.00
16580;BME280;8402;51.466;6.806;2023-10-31T05:47:40;99599.72;;;12.74;100.00
16580;BME280;8402;51.466;6.806;2023-10-31T05:50:10;99612.97;;;12.76;100.00
16580;BME280;8402;51.466;6.806;2023-10-31T05:52:42;99611.41;;;12.75;100.00
16580;BME280;8402;51.466;6.806;2023-10-31T05:55:12;99610.25;;;12.76;100.00
16580;BME280;8402;51.466;6.806;2023-10-31T05:57:42;99616.06;;;12.74;100.00
16580;BME280;8402;51.466;6.806;2023-10-31T06:00:13;99622.66;;;12.73;100.00
16580;BME280;8402;51.466;6.806;2023-10-31T06:02:43;99619.94;;;12.73;100.00
16580;BME280;8402;51.466;6.806;2023-10-31T06:05:13;99621.06;;;12.72;100.00
16580;BME280;8402;51.466;6.806;2023-10-31T06:07:46;99624.22;;;12.74;100.00
16580;BME280;8402;51.466;6.806;2023-10-31T06:10:17;99634.31;;;12.74;100.00
16580;BME280;8402;51.466;6.806;2023-10-31T06:12:48;99644.44;;;12.73;100.00
16580;BME280;8402;51.466;6.806;2023-10-31T06:15:18;99635.91;;;12.75;100.00
16580;BME280;8402;51.466;6.806;2023-10-31T06:17:48;99647.16;;;12.73;100.00
16580;BME280;8402;51.466;6.806;2023-10-31T06:20:18;99649.88;;;12.73;100.00
16580;BME280;8402;51.466;6.806;2023-10-31T06:22:53;99654.16;;;12.74;100.00
16580;BME280;8402;51.466;6.806;2023-10-31T06:25:24;99662.06;;;12.79;100.00
16580;BME280;8402;51.466;6.806;2023-10-31T06:27:54;99665.22;;;12.81;100.00
16580;BME280;8402;51.466;6.806;2023-10-31T06:30:24;99674.59;;;12.84;100.00
16580;BME280;8402;51.466;6.806;2023-10-31T06:32:55;99679.97;;;12.80;100.00
16580;BME280;8402;51.466;6.806;2023-10-31T06:35:25;99678.41;;;12.79;100.00
16580;BME280;8402;51.466;6.806;2023-10-31T06:37:57;99673.81;;;12.83;100.00
16580;BME280;8402;51.466;6.806;2023-10-31T06:40:29;99684.00;;;12.86;100.00
16580;BME280;8402;51.466;6.806;2023-10-31T06:43:01;99683.22;;;12.86;100.00
16580;BME280;8402;51.466;6.806;2023-10-31T06:45:31;99688.56;;;12.82;100.00
16580;BME280;8402;51.466;6.806;2023-10-31T06:48:01;99697.63;;;12.86;100.00
16580;BME280;8402;51.466;6.806;2023-10-31T06:50:32;99693.03;;;12.90;100.00
16580;BME280;8402;51.466;6.806;2023-10-31T06:53:04;99697.31;;;12.91;100.00
16580;BME280;8402;51.466;6.806;2023-10-31T06:55:34;99697.78;;;12.93;100.00
16580;BME280;8402;51.466;6.806;2023-10-31T06:58:04;99700.66;;;13.01;100.00
16580;BME280;8402;51.466;6.806;2023-10-31T07:00:34;99695.22;;;13.01;100.00
16580;BME280;8402;51.466;6.806;2023-10-31T07:03:04;99704.94;;;13.02;100.00
16580;BME280;8402;51.466;6.806;2023-10-31T07:05:36;99709.25;;;13.03;100.00
16580;BME280;8402;51.466;6.806;2023-10-31T07:08:09;99711.63;;;13.04;100.00
16580;BME280;8402;51.466;6.806;2023-10-31T07:10:39;99707.84;;;13.09;100.00
16580;BME280;8402;51.466;6.806;2023-10-31T07:13:12;99716.44;;;13.11;100.00
16580;BME280;8402;51.466;6.806;2023-10-31T07:15:42;99710.56;;;13.09;100.00
16580;BME280;8402;51.466;6.806;2023-10-31T07:18:13;99720.16;;;13.03;100.00
16580;BME280;8402;51.466;6.806;2023-10-31T07:20:43;99716.91;;;12.97;100.00
16580;BME280;8402;51.466;6.806;2023-10-31T07:23:15;99725.44;;;12.95;100.00
16580;BME280;8402;51.466;6.806;2023-10-31T07:25:45;99731.56;;;12.92;100.00
16580;BME280;8402;51.466;6.806;2023-10-31T07:28:15;99732.72;;;12.91;100.00
16580;BME280;8402;51.466;6.806;2023-10-31T07:30:46;99730.78;;;12.92;100.00
16580;BME280;8402;51.466;6.806;2023-10-31T07:33:17;99731.13;;;12.90;100.00
16580;BME280;8402;51.466;6.806;2023-10-31T07:35:47;99742.75;;;12.87;100.00
16580;BME280;8402;51.466;6.806;2023-10-31T07:38:19;99747.72;;;12.85;100.00
16580;BME280;8402;51.466;6.806;2023-10-31T07:40:49;99750.03;;;12.83;100.00
16580;BME280;8402;51.466;6.806;2023-10-31T07:43:19;99750.81;;;12.84;100.00
16580;BME280;8402;51.466;6.806;2023-10-31T07:45:49;99746.53;;;12.83;100.00
16580;BME280;8402;51.466;6.806;2023-10-31T07:48:22;99755.72;;;12.78;100.00
16580;BME280;8402;51.466;6.806;2023-10-31T07:50:51;99760.06;;;12.79;100.00
16580;BME280;8402;51.466;6.806;2023-10-31T07:53:24;99756.88;;;12.77;100.00
16580;BME280;8402;51.466;6.806;2023-10-31T07:55:54;99758.44;;;12.78;100.00
16580;BME280;8402;51.466;6.806;2023-10-31T07:58:24;99760.06;;;12.79;100.00
16580;BME280;8402;51.466;6.806;2023-10-31T08:00:54;99760.84;;;12.80;100.00
16580;BME280;8402;51.466;6.806;2023-10-31T08:03:23;99763.09;;;12.78;100.00
16580;BME280;8402;51.466;6.806;2023-10-31T08:05:54;99757.75;;;12.81;100.00
16580;BME280;8402;51.466;6.806;2023-10-31T08:08:26;99767.94;;;12.84;100.00
16580;BME280;8402;51.466;6.806;2023-10-31T08:10:56;99760.22;;;12.86;100.00
16580;BME280;8402;51.466;6.806;2023-10-31T08:13:29;99764.06;;;12.85;100.00
16580;BME280;8402;51.466;6.806;2023-10-31T08:15:59;99772.25;;;12.85;100.00
16580;BME280;8402;51.466;6.806;2023-10-31T08:18:29;99771.81;;;12.83;100.00
16580;BME280;8402;51.466;6.806;2023-10-31T08:20:59;99777.34;;;12.87;100.00
16580;BME280;8402;51.466;6.806;2023-10-31T08:23:32;99763.38;;;12.88;100.00
16580;BME280;8402;51.466;6.806;2023-10-31T08:26:03;99773.56;;;12.91;100.00
16580;BME280;8402;51.466;6.806;2023-10-31T08:28:33;99770.56;;;12.97;100.00
16580;BME280;8402;51.466;6.806;2023-10-31T08:31:03;99767.41;;;12.94;100.00
16580;BME280;8402;51.466;6.806;2023-10-31T08:33:33;99774.88;;;12.98;100.00
16580;BME280;8402;51.466;6.806;2023-10-31T08:36:04;99773.72;;;12.99;100.00
16580;BME280;8402;51.466;6.806;2023-10-31T08:38:37;99776.53;;;13.02;100.00
16580;BME280;8402;51.466;6.806;2023-10-31T08:41:07;99771.69;;;13.11;100.00
16580;BME280;8402;51.466;6.806;2023-10-31T08:43:37;99772.22;;;13.17;100.00
16580;BME280;8402;51.466;6.806;2023-10-31T08:46:07;99776.97;;;13.20;100.00
16580;BME280;8402;51.466;6.806;2023-10-31T08:48:37;99778.53;;;13.21;100.00
16580;BME280;8402;51.466;6.806;2023-10-31T08:51:07;99790.13;;;13.18;100.00
16580;BME280;8402;51.466;6.806;2023-10-31T08:53:39;99799.81;;;13.15;100.00
16580;BME280;8402;51.466;6.806;2023-10-31T08:56:11;99792.84;;;13.18;100.00
16580;BME280;8402;51.466;6.806;2023-10-31T08:58:41;99804.66;;;13.22;100.00
16580;BME280;8402;51.466;6.806;2023-10-31T09:01:11;99810.19;;;13.26;100.00
16580;BME280;8402;51.466;6.806;2023-10-31T09:03:41;99809.81;;;13.27;100.00
16580;BME280;8402;51.466;6.806;2023-10-31T09:06:11;99818.00;;;13.27;100.00
16580;BME280;8402;51.466;6.806;2023-10-31T09:08:44;99818.16;;;13.34;100.00
16580;BME280;8402;51.466;6.806;2023-10-31T09:11:14;99809.97;;;13.34;100.00
16580;BME280;8402;51.466;6.806;2023-10-31T09:13:44;99831.94;;;13.41;100.00
16580;BME280;8402;51.466;6.806;2023-10-31T09:16:14;99824.66;;;13.45;100.00
16580;BME280;8402;51.466;6.806;2023-10-31T09:18:44;99834.75;;;13.45;100.00
16580;BME280;8402;51.466;6.806;2023-10-31T09:21:14;99845.81;;;13.52;100.00
16580;BME280;8402;51.466;6.806;2023-10-31T09:23:46;99846.59;;;13.53;100.00
16580;BME280;8402;51.466;6.806;2023-10-31T09:26:16;99850.19;;;13.57;100.00
16580;BME280;8402;51.466;6.806;2023-10-31T09:28:47;99852.84;;;13.53;100.00
16580;BME280;8402;51.466;6.806;2023-10-31T09:31:17;99864.28;;;13.59;100.00
16580;BME280;8402;51.466;6.806;2023-10-31T09:33:47;99869.53;;;13.67;100.00
16580;BME280;8402;51.466;6.806;2023-10-31T09:36:17;99866.88;;;13.71;100.00
16580;BME280;8402;51.466;6.806;2023-10-31T09:38:52;99872.94;;;13.80;100.00
16580;BME280;8402;51.466;6.806;2023-10-31T09:41:21;99877.03;;;13.90;100.00
16580;BME280;8402;51.466;6.806;2023-10-31T09:43:51;99881.41;;;13.94;100.00
16580;BME280;8402;51.466;6.806;2023-10-31T09:46:23;99882.56;;;13.93;100.00
16580;BME280;8402;51.466;6.806;2023-10-31T09:48:53;99890.75;;;13.93;100.00
16580;BME280;8402;51.466;6.806;2023-10-31T09:51:23;99896.34;;;14.00;100.00
16580;BME280;8402;51.466;6.806;2023-10-31T09:53:57;99894.47;;;14.04;100.00
16580;BME280;8402;51.466;6.806;2023-10-31T09:56:29;99908.84;;;14.01;100.00
16580;BME280;8402;51.466;6.806;2023-10-31T09:59:01;99908.38;;;13.99;100.00
16580;BME280;8402;51.466;6.806;2023-10-31T10:01:32;99914.56;;;13.96;100.00
16580;BME280;8402;51.466;6.806;2023-10-31T10:04:05;99916.16;;;13.97;100.00
16580;BME280;8402;51.466;6.806;2023-10-31T10:06:35;99928.56;;;13.95;100.00
16580;BME280;8402;51.466;6.806;2023-10-31T10:09:13;99933.13;;;13.91;100.00
16580;BME280;8402;51.466;6.806;2023-10-31T10:11:43;99934.66;;;13.88;100.00
16580;BME280;8402;51.466;6.806;2023-10-31T10:14:12;99934.13;;;13.83;100.00
16580;BME280;8402;51.466;6.806;2023-10-31T10:16:42;99950.41;;;13.79;100.00
16580;BME280;8402;51.466;6.806;2023-10-31T10:19:17;99948.53;;;13.83;100.00
16580;BME280;8402;51.466;6.806;2023-10-31T10:21:49;99961.91;;;13.88;100.00
16580;BME280;8402;51.466;6.806;2023-10-31T10:24:23;99956.91;;;13.90;100.00
16580;BME280;8402;51.466;6.806;2023-10-31T10:26:53;99961.91;;;13.88;100.00
16580;BME280;8402;51.466;6.806;2023-10-31T10:29:23;99961.19;;;13.91;100.00
16580;BME280;8402;51.466;6.806;2023-10-31T10:31:53;99975.72;;;13.95;100.00
16580;BME280;8402;51.466;6.806;2023-10-31T10:34:24;99968.38;;;13.99;100.00
16580;BME280;8402;51.466;6.806;2023-10-31T10:36:55;99974.72;;;14.03;100.00
16580;BME280;8402;51.466;6.806;2023-10-31T10:39:29;99976.66;;;14.03;100.00
16580;BME280;8402;51.466;6.806;2023-10-31T10:42:09;99971.56;;;14.01;100.00
16580;BME280;8402;51.466;6.806;2023-10-31T10:44:42;99979.03;;;14.04;100.00
16580;BME280;8402;51.466;6.806;2023-10-31T10:47:17;99970.16;;;14.08;100.00
16580;BME280;8402;51.466;6.806;2023-10-31T10:49:50;99982.34;;;14.14;100.00
16580;BME280;8402;51.466;6.806;2023-10-31T10:52:23;99980.50;;;14.18;100.00
16580;BME280;8402;51.466;6.806;2023-10-31T10:55:04;99978.03;;;14.13;100.00
16580;BME280;8402;51.466;6.806;2023-10-31T10:57:37;99972.75;;;14.20;100.00
16580;BME280;8402;51.466;6.806;2023-10-31T11:00:10;99980.06;;;14.16;100.00
16580;BME280;8402;51.466;6.806;2023-10-31T11:02:43;99967.22;;;14.16;100.00
16580;BME280;8402;51.466;6.806;2023-10-31T11:05:16;99976.88;;;14.14;100.00
16580;BME280;8402;51.466;6.806;2023-10-31T11:07:47;99989.84;;;14.17;100.00
16580;BME280;8402;51.466;6.806;2023-10-31T11:10:21;99982.06;;;14.19;100.00
16580;BME280;8402;51.466;6.806;2023-10-31T11:12:51;99988.25;;;14.16;100.00
16580;BME280;8402;51.466;6.806;2023-10-31T11:15:23;99989.22;;;14.23;100.00
16580;BME280;8402;51.466;6.806;2023-10-31T11:17:55;99983.13;;;14.30;100.00
16580;BME280;8402;51.466;6.806;2023-10-31T11:20:26;99986.00;;;14.37;100.00
16580;BME280;8402;51.466;6.806;2023-10-31T11:22:56;99980.34;;;14.46;100.00
16580;BME280;8402;51.466;6.806;2023-10-31T11:25:42;99986.94;;;14.45;100.00
16580;BME280;8402;51.466;6.806;2023-10-31T11:28:13;99984.03;;;14.53;100.00
16580;BME280;8402;51.466;6.806;2023-10-31T11:30:46;99986.91;;;14.61;100.00
16580;BME280;8402;51.466;6.806;2023-10-31T11:33:20;99985.47;;;14.67;100.00
16580;BME280;8402;51.466;6.806;2023-10-31T11:35:50;99988.75;;;14.76;100.00
16580;BME280;8402;51.466;6.806;2023-10-31T11:38:31;99993.66;;;14.86;100.00
16580;BME280;8402;51.466;6.806;2023-10-31T11:41:05;99985.38;;;15.02;100.00
16580;BME280;8402;51.466;6.806;2023-10-31T11:43:57;99989.25;;;15.01;100.00
16580;BME280;8402;51.466;6.806;2023-10-31T11:46:27;99994.25;;;15.18;100.00
16580;BME280;8402;51.466;6.806;2023-10-31T11:48:58;99982.66;;;15.25;100.00
16580;BME280;8402;51.466;6.806;2023-10-31T11:51:28;99985.09;;;15.30;100.00
16580;BME280;8402;51.466;6.806;2023-10-31T11:54:00;99991.41;;;15.34;100.00
16580;BME280;8402;51.466;6.806;2023-10-31T11:56:37;99992.13;;;15.31;100.00
16580;BME280;8402;51.466;6.806;2023-10-31T11:59:06;99990.56;;;15.30;100.00
16580;BME280;8402;51.466;6.806;2023-10-31T12:01:44;99994.44;;;15.29;100.00
16580;BME280;8402;51.466;6.806;2023-10-31T12:04:23;99993.72;;;15.32;100.00
16580;BME280;8402;51.466;6.806;2023-10-31T12:06:59;99995.28;;;15.33;100.00
16580;BME280;8402;51.466;6.806;2023-10-31T12:09:30;99997.78;;;15.41;100.00
16580;BME280;8402;51.466;6.806;2023-10-31T12:12:05;100004.03;;;15.42;100.00
16580;BME280;8402;51.466;6.806;2023-10-31T12:14:35;100004.09;;;15.46;100.00
16580;BME280;8402;51.466;6.806;2023-10-31T12:17:07;100016.19;;;15.45;100.00
16580;BME280;8402;51.466;6.806;2023-10-31T12:19:37;100014.25;;;15.45;100.00
16580;BME280;8402;51.466;6.806;2023-10-31T12:22:13;100015.03;;;15.46;100.00
16580;BME280;8402;51.466;6.806;2023-10-31T12:24:43;100020.22;;;15.51;100.00
16580;BME280;8402;51.466;6.806;2023-10-31T12:27:16;100024.44;;;15.48;100.00
16580;BME280;8402;51.466;6.806;2023-10-31T12:29:45;100022.94;;;15.51;100.00
16580;BME280;8402;51.466;6.806;2023-10-31T12:32:16;100021.34;;;15.50;100.00
16580;BME280;8402;51.466;6.806;2023-10-31T12:34:46;100022.09;;;15.47;100.00
16580;BME280;8402;51.466;6.806;2023-10-31T12:37:17;100025.47;;;15.40;100.00
16580;BME280;8402;51.466;6.806;2023-10-31T12:39:47;100018.44;;;15.39;100.00
16580;BME280;8402;51.466;6.806;2023-10-31T12:42:20;100026.25;;;15.40;100.00
16580;BME280;8402;51.466;6.806;2023-10-31T12:44:56;100029.00;;;15.40;100.00
16580;BME280;8402;51.466;6.806;2023-10-31T12:47:26;100029.00;;;15.40;100.00
16580;BME280;8402;51.466;6.806;2023-10-31T12:50:07;100020.63;;;15.30;100.00
16580;BME280;8402;51.466;6.806;2023-10-31T12:52:48;100021.41;;;15.30;100.00
16580;BME280;8402;51.466;6.806;2023-10-31T12:55:19;100030.91;;;15.36;100.00
16580;BME280;8402;51.466;6.806;2023-10-31T12:57:52;100017.16;;;15.33;100.00
16580;BME280;8402;51.466;6.806;2023-10-31T13:00:30;100024.00;;;15.23;99.61
16580;BME280;8402;51.466;6.806;2023-10-31T13:03:01;100028.75;;;15.26;100.00
16580;BME280;8402;51.466;6.806;2023-10-31T13:05:32;100024.38;;;15.22;99.53
16580;BME280;8402;51.466;6.806;2023-10-31T13:08:03;100027.44;;;15.20;100.00
16580;BME280;8402;51.466;6.806;2023-10-31T13:10:33;100031.75;;;15.21;100.00
16580;BME280;8402;51.466;6.806;2023-10-31T13:13:06;100029.84;;;15.22;100.00
16580;BME280;8402;51.466;6.806;2023-10-31T13:15:36;100034.94;;;15.23;100.00
16580;BME280;8402;51.466;6.806;2023-10-31T13:18:06;100029.97;;;15.29;100.00
16580;BME280;8402;51.466;6.806;2023-10-31T13:20:38;100020.97;;;15.28;100.00